Time;durP1;ratioP1;P1;durP2;ratioP2;P2;SDS_P1;SDS_P2;PMS_P1;PMS_P2;Temp;Humidity;BMP_temperature;BMP_pressure;BME280_temperature;BME280_humidity;BME280_pressure;Samples;Min_cycle;Max_cycle;Signal;HPM_P1;HPM_P2
2022/09/13 00:02:08;;;;;;;0.10;0.10;;;;;;;;;;5002184;28;20051;-94
2022/09/13 00:04:34;;;;;;;0.10;0.10;;;;;;;;;;5002098;28;20064;-94
2022/09/13 00:07:00;;;;;;;0.20;0.20;;;;;;;;;;5002181;28;20037;-94
2022/09/13 00:09:26;;;;;;;0.10;0.10;;;;;;;;;;5002248;28;20033;-94
2022/09/13 00:11:55;;;;;;;0.10;0.10;;;;;;;;;;5018096;28;20052;-94
2022/09/13 00:14:21;;;;;;;0.10;0.10;;;;;;;;;;5018816;28;20067;-96
2022/09/13 00:16:47;;;;;;;0.13;0.13;;;;;;;;;;5002576;28;20150;-95
2022/09/13 00:19:14;;;;;;;0.20;0.20;;;;;;;;;;5018768;28;20070;-96
2022/09/13 00:21:41;;;;;;;0.10;0.10;;;;;;;;;;5018248;28;20400;-94
2022/09/13 00:24:08;;;;;;;0.13;0.13;;;;;;;;;;5002091;28;20037;-94
2022/09/13 00:26:35;;;;;;;0.10;0.10;;;;;;;;;;5018627;28;20127;-95
2022/09/13 00:29:01;;;;;;;0.10;0.10;;;;;;;;;;5002250;28;20080;-94
2022/09/13 00:31:27;;;;;;;0.10;0.10;;;;;;;;;;5001860;28;20072;-94
2022/09/13 00:33:55;;;;;;;0.10;0.10;;;;;;;;;;5001899;28;20384;-94
2022/09/13 00:36:31;;;;;;;0.10;0.10;;;;;;;;;;5018893;28;20097;-95
2022/09/13 00:38:57;;;;;;;0.10;0.10;;;;;;;;;;5018842;28;20179;-94
2022/09/13 00:41:29;;;;;;;0.10;0.10;;;;;;;;;;5002389;28;20379;-94
2022/09/13 00:43:55;;;;;;;;;;;;;;;;;;5023086;28;20049;-94
2022/09/13 00:46:24;;;;;;;0.10;0.10;;;;;;;;;;5021736;28;19990;-94
2022/09/13 00:48:53;;;;;;;0.60;0.60;;;;;;;;;;5021660;28;20036;-94
2022/09/13 00:51:19;;;;;;;0.57;0.20;;;;;;;;;;5005445;28;20044;-96
2022/09/13 00:53:46;;;;;;;0.30;0.30;;;;;;;;;;5005821;28;20037;-93
2022/09/13 00:56:17;;;;;;;0.20;0.20;;;;;;;;;;5005648;28;20395;-93
2022/09/13 00:58:50;;;;;;;0.20;0.20;;;;;;;;;;5004808;28;20048;-94
2022/09/13 01:01:16;;;;;;;0.30;0.30;;;;;;;;;;5020882;28;20049;-93
2022/09/13 01:03:49;;;;;;;0.10;0.10;;;;;;;;;;5005253;28;20407;-95
2022/09/13 01:06:18;;;;;;;0.20;0.20;;;;;;;;;;5022085;28;20048;-94
2022/09/13 01:08:45;;;;;;;0.20;0.20;;;;;;;;;;5004856;28;20043;-93
2022/09/13 01:11:13;;;;;;;0.10;0.10;;;;;;;;;;5021718;28;20045;-95
2022/09/13 01:13:39;;;;;;;0.17;0.17;;;;;;;;;;5005999;28;20083;-96
2022/09/13 01:16:06;;;;;;;0.20;0.20;;;;;;;;;;5005897;28;20041;-95
2022/09/13 01:18:35;;;;;;;0.10;0.10;;;;;;;;;;5022230;28;20106;-93
2022/09/13 01:21:29;;;;;;;0.30;0.20;;;;;;;;;;5004191;28;20083;-93
2022/09/13 01:24:07;;;;;;;0.10;0.10;;;;;;;;;;4997948;28;20049;-93
2022/09/13 01:26:57;;;;;;;0.10;0.10;;;;;;;;;;5020191;28;20040;-94
2022/09/13 01:29:42;;;;;;;0.10;0.10;;;;;;;;;;5004032;28;20103;-93
2022/09/13 01:32:08;;;;;;;0.10;0.10;;;;;;;;;;5020285;28;20048;-93
2022/09/13 01:34:38;;;;;;;0.10;0.10;;;;;;;;;;5020530;28;20036;-94
2022/09/13 01:37:07;;;;;;;0.15;0.15;;;;;;;;;;5004343;28;20075;-94
2022/09/13 01:39:46;;;;;;;0.10;0.10;;;;;;;;;;5037540;28;20372;-95
2022/09/13 01:42:27;;;;;;;0.10;0.10;;;;;;;;;;5020453;28;20099;-95
2022/09/13 01:45:12;;;;;;;0.10;0.10;;;;;;;;;;5004608;28;20107;-96
2022/09/13 01:47:39;;;;;;;0.10;0.10;;;;;;;;;;5021306;28;20060;-94
2022/09/13 01:50:18;;;;;;;0.10;0.10;;;;;;;;;;5019949;28;20037;-94
2022/09/13 01:52:47;;;;;;;0.10;0.10;;;;;;;;;;5004411;28;20049;-95
2022/09/13 01:55:16;;;;;;;0.10;0.10;;;;;;;;;;5020667;28;20047;-95
2022/09/13 01:57:49;;;;;;;0.10;0.10;;;;;;;;;;5037025;28;20209;-95
2022/09/13 02:00:17;;;;;;;0.10;0.10;;;;;;;;;;5020657;28;20432;-95
2022/09/13 02:03:05;;;;;;;0.10;0.10;;;;;;;;;;5020247;28;20552;-96
2022/09/13 02:05:45;;;;;;;0.10;0.10;;;;;;;;;;5004143;28;20063;-95
2022/09/13 02:08:13;;;;;;;0.10;0.10;;;;;;;;;;5020394;28;20472;-95
2022/09/13 02:10:41;;;;;;;0.10;0.10;;;;;;;;;;5003501;28;20127;-94
2022/09/13 02:13:10;;;;;;;0.10;0.10;;;;;;;;;;5004061;28;20056;-94
2022/09/13 02:15:42;;;;;;;0.10;0.10;;;;;;;;;;5020243;28;20041;-94
2022/09/13 02:18:10;;;;;;;0.10;0.10;;;;;;;;;;5004314;28;20103;-95
2022/09/13 02:20:37;;;;;;;0.10;0.10;;;;;;;;;;5004045;28;20383;-94
2022/09/13 02:23:04;;;;;;;0.10;0.10;;;;;;;;;;5003455;28;20096;-95
2022/09/13 02:25:31;;;;;;;0.20;0.20;;;;;;;;;;5003869;28;20498;-95
2022/09/13 02:28:00;;;;;;;0.10;0.10;;;;;;;;;;5003772;28;20041;-94
2022/09/13 02:30:28;;;;;;;0.10;0.10;;;;;;;;;;5019562;28;20047;-95
2022/09/13 02:32:58;;;;;;;0.10;0.10;;;;;;;;;;5003308;28;20052;-96
2022/09/13 02:35:25;;;;;;;0.10;0.10;;;;;;;;;;5003857;28;20045;-95
2022/09/13 02:37:53;;;;;;;0.47;0.30;;;;;;;;;;5003778;28;20053;-95
2022/09/13 02:40:22;;;;;;;0.10;0.10;;;;;;;;;;5003501;28;20047;-95
2022/09/13 02:42:51;;;;;;;0.10;0.10;;;;;;;;;;5000016;28;20429;-94
2022/09/13 02:45:18;;;;;;;0.10;0.10;;;;;;;;;;4999963;28;20045;-95
2022/09/13 02:48:09;;;;;;;0.10;0.10;;;;;;;;;;5004047;28;20044;-96
2022/09/13 02:50:35;;;;;;;0.10;0.10;;;;;;;;;;5019662;28;20048;-96
2022/09/13 02:53:23;;;;;;;0.20;0.20;;;;;;;;;;5035994;28;20471;-94
2022/09/13 02:56:03;;;;;;;0.20;0.20;;;;;;;;;;5019472;28;20449;-94
2022/09/13 02:58:45;;;;;;;0.10;0.10;;;;;;;;;;5019291;28;20056;-94
2022/09/13 03:01:11;;;;;;;0.15;0.15;;;;;;;;;;5003710;28;20135;-93
2022/09/13 03:03:39;;;;;;;0.10;0.10;;;;;;;;;;5002964;28;20037;-94
2022/09/13 03:06:06;;;;;;;0.10;0.10;;;;;;;;;;5018662;28;20120;-94
2022/09/13 03:08:33;;;;;;;0.98;0.20;;;;;;;;;;5003028;28;20083;-94
2022/09/13 03:11:03;;;;;;;0.10;0.10;;;;;;;;;;5002859;28;20072;-95
2022/09/13 03:13:32;;;;;;;0.10;0.10;;;;;;;;;;5019461;28;20492;-94
2022/09/13 03:16:17;;;;;;;0.20;0.20;;;;;;;;;;5035960;28;20044;-95
2022/09/13 03:19:08;;;;;;;0.10;0.10;;;;;;;;;;5019223;28;20041;-94
2022/09/13 03:21:42;;;;;;;0.10;0.10;;;;;;;;;;5019226;28;20052;-95
2022/09/13 03:24:14;;;;;;;0.15;0.15;;;;;;;;;;5002891;28;20068;-95
2022/09/13 03:26:52;;;;;;;0.10;0.10;;;;;;;;;;5002939;28;20040;-95
2022/09/13 03:29:22;;;;;;;0.10;0.10;;;;;;;;;;5018834;28;20052;-96
2022/09/13 03:31:48;;;;;;;0.20;0.20;;;;;;;;;;5019189;28;20131;-96
2022/09/13 03:34:26;;;;;;;0.10;0.10;;;;;;;;;;5019007;28;20041;-95
2022/09/13 03:36:56;;;;;;;0.10;0.10;;;;;;;;;;5018798;28;20025;-96
2022/09/13 03:39:25;;;;;;;0.20;0.20;;;;;;;;;;5002885;28;20399;-95
2022/09/13 03:41:54;;;;;;;0.20;0.20;;;;;;;;;;5018260;28;20114;-95
2022/09/13 03:44:59;;;;;;;0.10;0.10;;;;;;;;;;5003593;28;20396;-96
2022/09/13 03:47:38;;;;;;;;;;;;;;;;;;;;;
2022/09/13 03:50:43;;;;;;;0.10;0.10;;;;;;;;;;5033019;28;20045;-96
2022/09/13 03:53:10;;;;;;;0.10;0.10;;;;;;;;;;5002486;28;20037;-95
2022/09/13 03:55:45;;;;;;;0.10;0.10;;;;;;;;;;5002519;28;20041;-95
2022/09/13 03:58:24;;;;;;;0.20;0.20;;;;;;;;;;5002454;28;20091;-94
2022/09/13 04:00:53;;;;;;;0.10;0.10;;;;;;;;;;5018768;28;20041;-95
2022/09/13 04:03:19;;;;;;;0.43;0.43;;;;;;;;;;5002849;28;20033;-95
2022/09/13 04:05:45;;;;;;;0.10;0.10;;;;;;;;;;5002542;28;20487;-96
2022/09/13 04:08:11;;;;;;;0.10;0.10;;;;;;;;;;5002039;28;20083;-95
2022/09/13 04:10:38;;;;;;;0.10;0.10;;;;;;;;;;5002416;28;20065;-95
2022/09/13 04:13:08;;;;;;;0.10;0.10;;;;;;;;;;5002964;28;20044;-95
2022/09/13 04:15:34;;;;;;;0.20;0.20;;;;;;;;;;5018976;28;20466;-95
2022/09/13 04:18:00;;;;;;;0.10;0.10;;;;;;;;;;5004708;28;20049;-95
2022/09/13 04:20:26;;;;;;;0.40;0.40;;;;;;;;;;5006123;28;20049;-94
2022/09/13 04:22:52;;;;;;;0.10;0.10;;;;;;;;;;5005708;28;20036;-95
2022/09/13 04:25:19;;;;;;;0.30;0.30;;;;;;;;;;5005953;28;20061;-93
2022/09/13 04:27:45;;;;;;;0.10;0.10;;;;;;;;;;5022412;28;20051;-94
2022/09/13 04:30:12;;;;;;;0.10;0.10;;;;;;;;;;5005583;28;20505;-93
2022/09/13 04:32:39;;;;;;;0.10;0.10;;;;;;;;;;5005845;28;20048;-96
2022/09/13 04:35:07;;;;;;;0.47;0.47;;;;;;;;;;5021363;28;20049;-96
2022/09/13 04:37:33;;;;;;;0.10;0.10;;;;;;;;;;5006273;28;20067;-96
2022/09/13 04:39:59;;;;;;;0.10;0.10;;;;;;;;;;5006295;28;20402;-95
2022/09/13 04:42:25;;;;;;;0.20;0.20;;;;;;;;;;5005338;28;20132;-96
2022/09/13 04:44:51;;;;;;;0.10;0.10;;;;;;;;;;5006191;28;20440;-96
2022/09/13 04:47:17;;;;;;;0.10;0.10;;;;;;;;;;5005588;28;20087;-96
2022/09/13 04:49:44;;;;;;;0.10;0.10;;;;;;;;;;5005859;28;20044;-95
2022/09/13 04:52:10;;;;;;;0.10;0.10;;;;;;;;;;5005062;28;20051;-94
2022/09/13 04:54:36;;;;;;;0.10;0.10;;;;;;;;;;5005476;28;20487;-95
2022/09/13 04:57:02;;;;;;;0.10;0.10;;;;;;;;;;5005842;28;20041;-96
2022/09/13 04:59:28;;;;;;;0.10;0.10;;;;;;;;;;5005570;28;20045;-94
2022/09/13 05:01:54;;;;;;;0.10;0.10;;;;;;;;;;5005091;28;20048;-95
2022/09/13 05:04:20;;;;;;;0.10;0.10;;;;;;;;;;5005348;28;20166;-95
2022/09/13 05:06:47;;;;;;;0.10;0.10;;;;;;;;;;5005176;28;20082;-95
2022/09/13 05:09:13;;;;;;;0.10;0.10;;;;;;;;;;5005376;28;20048;-96
2022/09/13 05:11:39;;;;;;;0.10;0.10;;;;;;;;;;5005355;28;20038;-95
2022/09/13 05:14:05;;;;;;;0.10;0.10;;;;;;;;;;5005723;28;20044;-96
2022/09/13 05:16:34;;;;;;;0.10;0.10;;;;;;;;;;5006954;28;20100;-96
2022/09/13 05:19:00;;;;;;;0.10;0.10;;;;;;;;;;5006600;28;20106;-95
2022/09/13 05:21:27;;;;;;;0.10;0.10;;;;;;;;;;5005302;28;20123;-96
2022/09/13 05:23:53;;;;;;;0.20;0.20;;;;;;;;;;5004969;28;20041;-96
2022/09/13 05:26:19;;;;;;;0.13;0.13;;;;;;;;;;5005309;28;20037;-96
2022/09/13 05:28:45;;;;;;;0.10;0.10;;;;;;;;;;5004653;28;20072;-96
2022/09/13 05:31:15;;;;;;;0.10;0.10;;;;;;;;;;5020190;28;20102;-92
2022/09/13 05:33:41;;;;;;;0.15;0.15;;;;;;;;;;5003754;28;20042;-91
2022/09/13 05:36:07;;;;;;;0.10;0.10;;;;;;;;;;5036510;28;20391;-93
2022/09/13 05:38:33;;;;;;;0.10;0.10;;;;;;;;;;5003823;28;20045;-91
2022/09/13 05:41:00;;;;;;;0.10;0.10;;;;;;;;;;5003244;28;20475;-92
2022/09/13 05:43:27;;;;;;;0.10;0.10;;;;;;;;;;5003125;28;20133;-92
2022/09/13 05:46:11;;;;;;;0.10;0.10;;;;;;;;;;5003257;28;20048;-90
2022/09/13 05:48:37;;;;;;;0.10;0.10;;;;;;;;;;5004134;28;20083;-92
2022/09/13 05:51:13;;;;;;;0.10;0.10;;;;;;;;;;5004153;28;20138;-92
2022/09/13 05:53:40;;;;;;;0.25;0.25;;;;;;;;;;5003682;28;20551;-91
2022/09/13 05:56:06;;;;;;;0.10;0.10;;;;;;;;;;5003576;28;20090;-91
2022/09/13 05:58:33;;;;;;;0.10;0.10;;;;;;;;;;5004004;28;20501;-93
2022/09/13 06:01:00;;;;;;;0.10;0.10;;;;;;;;;;5003611;28;20140;-89
2022/09/13 06:03:26;;;;;;;0.10;0.10;;;;;;;;;;5019114;28;20047;-89
2022/09/13 06:05:55;;;;;;;0.10;0.10;;;;;;;;;;5003368;28;20045;-91
2022/09/13 06:08:22;;;;;;;0.10;0.10;;;;;;;;;;5002795;28;20131;-90
2022/09/13 06:11:01;;;;;;;0.10;0.10;;;;;;;;;;5002976;28;20120;-89
2022/09/13 06:13:27;;;;;;;0.10;0.10;;;;;;;;;;5002883;28;20041;-90
2022/09/13 06:15:56;;;;;;;0.10;0.10;;;;;;;;;;5002958;28;20045;-89
2022/09/13 06:18:23;;;;;;;0.10;0.10;;;;;;;;;;5003011;28;20490;-89
2022/09/13 06:20:49;;;;;;;0.10;0.10;;;;;;;;;;5002611;28;20041;-89
2022/09/13 06:23:15;;;;;;;0.10;0.10;;;;;;;;;;5002369;28;20037;-89
2022/09/13 06:25:41;;;;;;;0.10;0.10;;;;;;;;;;5019326;28;20040;-90
2022/09/13 06:28:08;;;;;;;0.10;0.10;;;;;;;;;;5002861;28;20041;-88
2022/09/13 06:30:34;;;;;;;0.10;0.10;;;;;;;;;;5002801;28;20183;-90
2022/09/13 06:33:00;;;;;;;0.10;0.10;;;;;;;;;;5018837;28;20045;-90
2022/09/13 06:35:26;;;;;;;0.10;0.10;;;;;;;;;;5002917;28;20131;-92
2022/09/13 06:37:58;;;;;;;0.10;0.10;;;;;;;;;;5002655;28;20045;-89
2022/09/13 06:40:24;;;;;;;0.10;0.10;;;;;;;;;;5017870;28;20041;-90
2022/09/13 06:42:50;;;;;;;0.35;0.35;;;;;;;;;;5018606;28;20589;-90
2022/09/13 06:45:17;;;;;;;0.10;0.10;;;;;;;;;;5002392;28;20041;-90
2022/09/13 06:47:43;;;;;;;0.10;0.10;;;;;;;;;;5002474;28;20041;-90
2022/09/13 06:50:09;;;;;;;0.10;0.10;;;;;;;;;;5002453;28;20037;-90
2022/09/13 06:52:36;;;;;;;0.17;0.17;;;;;;;;;;5002726;28;20048;-91
2022/09/13 06:55:02;;;;;;;0.10;0.10;;;;;;;;;;5002020;28;20052;-91
2022/09/13 06:57:29;;;;;;;0.10;0.10;;;;;;;;;;5002388;28;20049;-90
2022/09/13 06:59:55;;;;;;;0.10;0.10;;;;;;;;;;5001935;28;20468;-89
2022/09/13 07:02:24;;;;;;;0.10;0.10;;;;;;;;;;5018280;28;20045;-92
2022/09/13 07:04:50;;;;;;;0.10;0.10;;;;;;;;;;5034579;28;20468;-92
2022/09/13 07:07:16;;;;;;;0.10;0.10;;;;;;;;;;5002123;28;20072;-93
2022/09/13 07:09:42;;;;;;;0.10;0.10;;;;;;;;;;5002376;28;20041;-91
2022/09/13 07:12:08;;;;;;;0.20;0.20;;;;;;;;;;5002636;28;20480;-91
2022/09/13 07:14:34;;;;;;;0.10;0.10;;;;;;;;;;5004510;28;20044;-95
2022/09/13 07:17:03;;;;;;;0.10;0.10;;;;;;;;;;5002244;28;20464;-93
2022/09/13 07:19:31;;;;;;;0.10;0.10;;;;;;;;;;5019431;28;20479;-93
2022/09/13 07:21:57;;;;;;;0.10;0.10;;;;;;;;;;5018239;28;20041;-93
2022/09/13 07:24:23;;;;;;;0.10;0.10;;;;;;;;;;4995280;28;20045;-94
2022/09/13 07:26:49;;;;;;;0.10;0.10;;;;;;;;;;4982624;28;20037;-94
2022/09/13 07:29:17;;;;;;;0.10;0.10;;;;;;;;;;4982889;28;20037;-93
2022/09/13 07:31:49;;;;;;;0.10;0.10;;;;;;;;;;5015442;28;20041;-94
2022/09/13 07:34:19;;;;;;;0.10;0.10;;;;;;;;;;4982907;28;20046;-92
2022/09/13 07:36:47;;;;;;;0.10;0.10;;;;;;;;;;4982755;28;20384;-94
2022/09/13 07:39:16;;;;;;;0.13;0.13;;;;;;;;;;4983065;28;20038;-94
2022/09/13 07:41:45;;;;;;;0.10;0.10;;;;;;;;;;4985124;28;20041;-93
2022/09/13 07:44:11;;;;;;;0.10;0.10;;;;;;;;;;4998760;28;20133;-94
2022/09/13 07:46:42;;;;;;;0.20;0.20;;;;;;;;;;4982232;28;20046;-94
2022/09/13 07:49:08;;;;;;;0.10;0.10;;;;;;;;;;4983552;28;20041;-94
2022/09/13 07:51:35;;;;;;;0.20;0.20;;;;;;;;;;4984588;28;20109;-93
2022/09/13 07:54:02;;;;;;;0.10;0.10;;;;;;;;;;4986671;28;20168;-92
2022/09/13 07:56:31;;;;;;;0.10;0.10;;;;;;;;;;5002297;28;20041;-93
2022/09/13 07:58:59;;;;;;;0.10;0.10;;;;;;;;;;4986049;28;20393;-93
2022/09/13 08:01:26;;;;;;;0.10;0.10;;;;;;;;;;5002043;28;20045;-94
2022/09/13 08:03:56;;;;;;;0.10;0.10;;;;;;;;;;4985968;28;20147;-93
2022/09/13 08:06:22;;;;;;;0.10;0.10;;;;;;;;;;5002410;28;20037;-93
2022/09/13 08:09:19;;;;;;;0.10;0.10;;;;;;;;;;4989844;28;20033;-96
2022/09/13 08:11:47;;;;;;;0.10;0.10;;;;;;;;;;5021119;28;20037;-95
2022/09/13 08:14:14;;;;;;;0.10;0.10;;;;;;;;;;4992090;28;20063;-96
2022/09/13 08:16:42;;;;;;;0.10;0.10;;;;;;;;;;4993139;28;20037;-95
2022/09/13 08:19:10;;;;;;;0.10;0.10;;;;;;;;;;4994379;28;20044;-96
2022/09/13 08:21:38;;;;;;;0.10;0.10;;;;;;;;;;5007209;28;20037;-96
2022/09/13 08:24:05;;;;;;;0.10;0.10;;;;;;;;;;4989303;28;20034;-93
2022/09/13 08:26:33;;;;;;;0.20;0.20;;;;;;;;;;5005771;28;20052;-91
2022/09/13 08:29:14;;;;;;;0.10;0.10;;;;;;;;;;4995265;28;20037;-94
2022/09/13 08:31:42;;;;;;;0.20;0.20;;;;;;;;;;5011717;28;20073;-95
2022/09/13 08:34:13;;;;;;;0.10;0.10;;;;;;;;;;4995200;28;20047;-94
2022/09/13 08:36:47;;;;;;;0.20;0.20;;;;;;;;;;5038112;28;20049;-95
2022/09/13 08:39:29;;;;;;;;;;;;;;;;;;5044791;28;20033;-94
2022/09/13 08:42:31;;;;;;;0.10;0.10;;;;;;;;;;5042481;28;19944;-93
2022/09/13 08:45:18;;;;;;;;;;;;;;;;;;5058899;28;20087;-94
2022/09/13 08:48:15;;;;;;;0.10;0.10;;;;;;;;;;5042435;28;19909;-93
2022/09/13 08:50:43;;;;;;;0.10;0.10;;;;;;;;;;5124779;23;20024;-92
2022/09/13 08:53:29;;;;;;;0.20;0.20;;;;;;;;;;5046236;28;20033;-95
2022/09/13 08:56:10;;;;;;;0.10;0.10;;;;;;;;;;5062517;28;20049;-94
2022/09/13 09:04:16;;;;;;;0.10;0.10;;;;;;;;;;5135995;22;20056;-95
2022/09/13 09:10:21;;;;;;;0.20;0.20;;;;;;;;;;5942283;22;20153;-94
2022/09/13 09:12:53;;;;;;;0.10;0.10;;;;;;;;;;5012876;28;20053;-92
2022/09/13 09:15:21;;;;;;;0.10;0.10;;;;;;;;;;5033645;28;20094;-93
2022/09/13 09:18:06;;;;;;;0.20;0.20;;;;;;;;;;5038152;28;20377;-94
2022/09/13 09:20:48;;;;;;;1.30;0.40;;;;;;;;;;5072119;28;20132;-91
2022/09/13 09:23:14;;;;;;;0.10;0.10;;;;;;;;;;5037898;28;20044;-90
2022/09/13 09:25:40;;;;;;;0.20;0.20;;;;;;;;;;5070219;28;20041;-90
2022/09/13 09:28:09;;;;;;;0.20;0.20;;;;;;;;;;5058531;28;20399;-91
2022/09/13 09:31:11;;;;;;;0.20;0.20;;;;;;;;;;5037185;28;20033;-94
2022/09/13 09:33:46;;;;;;;0.20;0.20;;;;;;;;;;5046992;28;20251;-91
2022/09/13 09:36:15;;;;;;;0.10;0.10;;;;;;;;;;5049195;28;20132;-92
2022/09/13 09:38:42;;;;;;;0.15;0.15;;;;;;;;;;5049363;28;20493;-95
2022/09/13 09:41:27;;;;;;;0.20;0.20;;;;;;;;;;5049369;28;20418;-93
2022/09/13 09:44:32;;;;;;;0.20;0.20;;;;;;;;;;5058393;28;20055;-95
2022/09/13 09:55:59;;;;;;;0.20;0.20;;;;;;;;;;4977378;28;20405;-95
2022/09/13 09:58:40;;;;;;;0.20;0.20;;;;;;;;;;4979365;28;20116;-93
2022/09/13 10:14:50;;;;;;;0.20;0.20;;;;;;;;;;5012794;28;20096;-94
2022/09/13 10:17:33;;;;;;;0.20;0.20;;;;;;;;;;5015013;28;20038;-95
2022/09/13 10:20:20;;;;;;;0.10;0.10;;;;;;;;;;4982601;28;20034;-93
2022/09/13 10:23:12;;;;;;;0.10;0.10;;;;;;;;;;4977202;28;20309;-96
2022/09/13 10:25:42;;;;;;;0.10;0.10;;;;;;;;;;4976297;28;20087;-94
2022/09/13 10:28:12;;;;;;;0.10;0.10;;;;;;;;;;4993411;28;20042;-94
2022/09/13 10:30:46;;;;;;;0.10;0.10;;;;;;;;;;4960795;28;20478;-94
2022/09/13 10:33:21;;;;;;;0.10;0.10;;;;;;;;;;4961115;28;20379;-94
2022/09/13 10:35:50;;;;;;;0.10;0.10;;;;;;;;;;4993567;28;20035;-94
2022/09/13 10:38:22;;;;;;;;;;;;;;;;;;4961972;28;20143;-93
2022/09/13 10:40:49;;;;;;;0.17;0.17;;;;;;;;;;4992707;28;19925;-94
2022/09/13 10:43:18;;;;;;;0.20;0.20;;;;;;;;;;4992658;28;20043;-94
2022/09/13 10:45:50;;;;;;;0.20;0.20;;;;;;;;;;4977467;28;20375;-90
2022/09/13 10:48:16;;;;;;;0.10;0.10;;;;;;;;;;4960579;28;20038;-90
2022/09/13 10:50:59;;;;;;;0.10;0.10;;;;;;;;;;4960112;28;20155;-90
2022/09/13 10:53:36;;;;;;;0.10;0.10;;;;;;;;;;4960217;28;20512;-93
2022/09/13 10:56:03;;;;;;;0.20;0.20;;;;;;;;;;4976201;28;20042;-92
2022/09/13 10:58:29;;;;;;;0.10;0.10;;;;;;;;;;4976500;28;20046;-93
2022/09/13 11:01:06;;;;;;;0.10;0.10;;;;;;;;;;4960307;28;20382;-92
2022/09/13 11:03:35;;;;;;;0.20;0.20;;;;;;;;;;4993300;28;20065;-93
2022/09/13 11:06:12;;;;;;;0.20;0.20;;;;;;;;;;4992854;28;20390;-91
2022/09/13 11:08:38;;;;;;;0.20;0.20;;;;;;;;;;4961333;28;20042;-92
2022/09/13 11:11:33;;;;;;;0.10;0.10;;;;;;;;;;4992998;28;20045;-94
2022/09/13 11:14:09;;;;;;;0.10;0.10;;;;;;;;;;4976036;28;20050;-94
2022/09/13 11:16:42;;;;;;;0.20;0.20;;;;;;;;;;4960190;28;20050;-93
2022/09/13 11:19:18;;;;;;;0.10;0.10;;;;;;;;;;4959859;28;20038;-93
2022/09/13 11:21:45;;;;;;;0.20;0.20;;;;;;;;;;4991830;28;20510;-91
2022/09/13 11:24:17;;;;;;;0.20;0.20;;;;;;;;;;4991672;28;20034;-93
2022/09/13 11:26:50;;;;;;;0.10;0.10;;;;;;;;;;4991543;28;20046;-93
2022/09/13 11:29:16;;;;;;;0.10;0.10;;;;;;;;;;4959893;28;20052;-93
2022/09/13 11:32:05;;;;;;;0.20;0.20;;;;;;;;;;4992385;28;20113;-94
2022/09/13 11:34:32;;;;;;;0.20;0.20;;;;;;;;;;4975352;28;20060;-92
2022/09/13 11:37:02;;;;;;;0.10;0.10;;;;;;;;;;4991740;28;20038;-93
2022/09/13 11:39:31;;;;;;;0.20;0.20;;;;;;;;;;4992437;28;20390;-93
2022/09/13 11:42:06;;;;;;;0.10;0.10;;;;;;;;;;4992174;28;20039;-93
2022/09/13 11:44:42;;;;;;;0.10;0.10;;;;;;;;;;5001145;28;20035;-94
2022/09/13 11:47:23;;;;;;;0.10;0.10;;;;;;;;;;4979368;28;20485;-93
2022/09/13 11:50:08;;;;;;;0.10;0.10;;;;;;;;;;4992403;28;20104;-92
2022/09/13 11:52:54;;;;;;;0.10;0.10;;;;;;;;;;4999936;28;20133;-94
2022/09/13 11:55:49;;;;;;;0.10;0.10;;;;;;;;;;4993042;28;20050;-95
2022/09/13 11:58:24;;;;;;;0.10;0.10;;;;;;;;;;4993744;28;20122;-95
2022/09/13 12:01:02;;;;;;;0.10;0.10;;;;;;;;;;4960093;28;20069;-93
2022/09/13 12:03:41;;;;;;;0.10;0.10;;;;;;;;;;4976599;28;20104;-96
2022/09/13 12:06:33;;;;;;;0.10;0.10;;;;;;;;;;4993671;28;20050;-96
2022/09/13 12:09:09;;;;;;;0.10;0.10;;;;;;;;;;4976188;28;20441;-96
2022/09/13 12:11:58;;;;;;;0.10;0.10;;;;;;;;;;5008649;28;20038;-96
2022/09/13 12:14:26;;;;;;;0.10;0.10;;;;;;;;;;4992201;28;20054;-94
2022/09/13 12:16:58;;;;;;;0.10;0.10;;;;;;;;;;4960574;28;20113;-95
2022/09/13 12:19:43;;;;;;;0.10;0.10;;;;;;;;;;4960170;28;20108;-95
2022/09/13 12:22:13;;;;;;;0.10;0.10;;;;;;;;;;4993523;28;20069;-96
2022/09/13 12:24:41;;;;;;;0.10;0.10;;;;;;;;;;4960704;28;20085;-95
2022/09/13 12:27:15;;;;;;;0.10;0.10;;;;;;;;;;4959803;28;20501;-94
2022/09/13 12:29:59;;;;;;;0.10;0.10;;;;;;;;;;4976771;28;20045;-94
2022/09/13 12:32:27;;;;;;;0.10;0.10;;;;;;;;;;4962101;28;20069;-94
2022/09/13 12:35:23;;;;;;;0.10;0.10;;;;;;;;;;4993300;28;20133;-95
2022/09/13 12:38:15;;;;;;;0.10;0.10;;;;;;;;;;4986940;28;20050;-95
2022/09/13 12:40:57;;;;;;;0.10;0.10;;;;;;;;;;4995623;28;20403;-94
2022/09/13 12:43:42;;;;;;;0.20;0.20;;;;;;;;;;4996077;28;20042;-94
2022/09/13 12:46:26;;;;;;;0.10;0.10;;;;;;;;;;4996075;28;20046;-94
2022/09/13 12:49:04;;;;;;;0.10;0.10;;;;;;;;;;4996626;28;20078;-93
2022/09/13 12:51:36;;;;;;;0.10;0.10;;;;;;;;;;4979125;28;20039;-94
2022/09/13 12:54:04;;;;;;;0.20;0.20;;;;;;;;;;4963561;28;20043;-94
2022/09/13 12:56:52;;;;;;;0.10;0.10;;;;;;;;;;4996050;28;20464;-95
2022/09/13 12:59:24;;;;;;;0.10;0.10;;;;;;;;;;4994106;28;20108;-94
2022/09/13 13:01:51;;;;;;;0.22;0.22;;;;;;;;;;4984167;28;20097;-93
2022/09/13 13:04:22;;;;;;;0.10;0.10;;;;;;;;;;4983590;28;20046;-94
2022/09/13 13:06:55;;;;;;;0.20;0.20;;;;;;;;;;4979280;28;20038;-94
2022/09/13 13:09:24;;;;;;;0.10;0.10;;;;;;;;;;4979239;28;20049;-92
2022/09/13 13:11:53;;;;;;;0.20;0.20;;;;;;;;;;4978535;28;20465;-93
2022/09/13 13:14:25;;;;;;;0.10;0.10;;;;;;;;;;4997548;28;20347;-93
2022/09/13 13:16:51;;;;;;;0.20;0.20;;;;;;;;;;4997393;28;20038;-92
2022/09/13 13:19:30;;;;;;;0.10;0.10;;;;;;;;;;4996640;28;20042;-92
2022/09/13 13:22:16;;;;;;;0.13;0.13;;;;;;;;;;4997212;28;20038;-93
2022/09/13 13:24:46;;;;;;;0.10;0.10;;;;;;;;;;4980803;28;20524;-92
2022/09/13 13:27:20;;;;;;;0.10;0.10;;;;;;;;;;4997296;28;20083;-93
2022/09/13 13:29:46;;;;;;;0.10;0.10;;;;;;;;;;4997212;28;20057;-93
2022/09/13 13:32:12;;;;;;;0.17;0.17;;;;;;;;;;4997106;28;20060;-93
2022/09/13 13:34:48;;;;;;;0.10;0.10;;;;;;;;;;4997051;28;20053;-93
2022/09/13 13:37:17;;;;;;;0.20;0.20;;;;;;;;;;4997024;28;20084;-93
2022/09/13 13:39:43;;;;;;;0.10;0.10;;;;;;;;;;4980679;28;20052;-93
2022/09/13 13:42:13;;;;;;;0.20;0.20;;;;;;;;;;4980751;28;20045;-93
2022/09/13 13:44:45;;;;;;;0.20;0.20;;;;;;;;;;4997132;28;20447;-92
2022/09/13 13:47:12;;;;;;;;;;;;;;;;;;4981514;28;20127;-94
2022/09/13 13:49:38;;;;;;;0.10;0.10;;;;;;;;;;4996745;28;20280;-94
2022/09/13 13:52:07;;;;;;;0.10;0.10;;;;;;;;;;4996803;28;20108;-93
2022/09/13 13:54:48;;;;;;;0.30;0.30;;;;;;;;;;4980795;28;20041;-94
2022/09/13 13:57:26;;;;;;;0.10;0.10;;;;;;;;;;4997196;28;20073;-93
2022/09/13 14:00:11;;;;;;;0.20;0.20;;;;;;;;;;4996921;28;20397;-93
2022/09/13 14:03:01;;;;;;;0.10;0.10;;;;;;;;;;4980536;28;20120;-94
2022/09/13 14:05:27;;;;;;;0.10;0.10;;;;;;;;;;4962635;28;20140;-94
2022/09/13 14:07:59;;;;;;;0.20;0.20;;;;;;;;;;4997114;28;20038;-93
2022/09/13 14:13:32;;;;;;;0.10;0.10;;;;;;;;;;5067846;22;19964;-93
2022/09/13 14:16:05;;;;;;;0.20;0.20;;;;;;;;;;4996431;28;20077;-93
2022/09/13 14:18:40;;;;;;;0.10;0.10;;;;;;;;;;4981218;28;20046;-93
2022/09/13 14:21:18;;;;;;;0.10;0.10;;;;;;;;;;4996398;28;20057;-93
2022/09/13 14:23:44;;;;;;;0.70;0.20;;;;;;;;;;4996412;28;20124;-93
2022/09/13 14:26:10;;;;;;;0.10;0.10;;;;;;;;;;4980647;28;20052;-93
2022/09/13 14:28:37;;;;;;;0.10;0.10;;;;;;;;;;4980469;28;20042;-93
2022/09/13 14:31:03;;;;;;;0.20;0.20;;;;;;;;;;4980581;28;20470;-93
2022/09/13 14:33:32;;;;;;;0.10;0.10;;;;;;;;;;4979943;28;20089;-93
2022/09/13 14:36:08;;;;;;;0.10;0.10;;;;;;;;;;4980612;28;20042;-94
2022/09/13 14:38:35;;;;;;;0.20;0.20;;;;;;;;;;4981642;28;20477;-93
2022/09/13 14:41:02;;;;;;;0.20;0.20;;;;;;;;;;4982919;28;20038;-93
2022/09/13 14:43:29;;;;;;;0.10;0.10;;;;;;;;;;4982473;28;20104;-93
2022/09/13 14:46:04;;;;;;;0.10;0.10;;;;;;;;;;4980939;28;20041;-92
2022/09/13 14:49:09;;;;;;;0.10;0.10;;;;;;;;;;5001624;28;20504;-96
2022/09/13 14:51:40;;;;;;;0.10;0.10;;;;;;;;;;5067352;23;20049;-94
2022/09/13 14:54:10;;;;;;;0.10;0.10;;;;;;;;;;4986087;28;20396;-94
2022/09/13 14:56:41;;;;;;;0.10;0.10;;;;;;;;;;5177311;22;20205;-94
2022/09/13 14:59:14;;;;;;;0.10;0.10;;;;;;;;;;4947081;28;20197;-94
2022/09/13 15:01:40;;;;;;;0.20;0.20;;;;;;;;;;4941453;28;20431;-95
2022/09/13 15:04:09;;;;;;;0.20;0.20;;;;;;;;;;4970928;28;20053;-96
2022/09/13 15:06:59;;;;;;;0.10;0.10;;;;;;;;;;5085566;23;20119;-95
2022/09/13 15:09:37;;;;;;;0.10;0.10;;;;;;;;;;5364663;22;20514;-96
2022/09/13 15:12:24;;;;;;;0.20;0.20;;;;;;;;;;5015362;28;20473;-95
2022/09/13 15:14:50;;;;;;;0.20;0.20;;;;;;;;;;4984401;28;20124;-92
2022/09/13 15:17:18;;;;;;;0.10;0.10;;;;;;;;;;5002003;28;20067;-93
2022/09/13 15:20:01;;;;;;;0.10;0.10;;;;;;;;;;4987400;28;20033;-91
2022/09/13 15:22:29;;;;;;;0.10;0.10;;;;;;;;;;5014612;28;20037;-91
2022/09/13 15:24:55;;;;;;;0.20;0.17;;;;;;;;;;4981822;28;20409;-92
2022/09/13 15:27:23;;;;;;;0.10;0.10;;;;;;;;;;5014746;28;20122;-91
2022/09/13 15:29:49;;;;;;;0.10;0.10;;;;;;;;;;5015107;28;20040;-92
2022/09/13 15:32:20;;;;;;;0.10;0.10;;;;;;;;;;5014580;28;20099;-92
2022/09/13 15:34:47;;;;;;;0.10;0.10;;;;;;;;;;4981878;28;20077;-93
2022/09/13 15:37:14;;;;;;;0.10;0.10;;;;;;;;;;4981793;28;20064;-92
2022/09/13 15:39:50;;;;;;;0.10;0.10;;;;;;;;;;4981951;28;20045;-93
2022/09/13 15:42:16;;;;;;;0.10;0.10;;;;;;;;;;4983022;28;20388;-93
2022/09/13 15:44:45;;;;;;;0.20;0.20;;;;;;;;;;4981997;28;20514;-95
2022/09/13 15:47:14;;;;;;;0.10;0.10;;;;;;;;;;4997886;28;20038;-92
2022/09/13 15:49:46;;;;;;;0.10;0.10;;;;;;;;;;4981961;28;20061;-91